Time;durP1;ratioP1;P1;durP2;ratioP2;P2;SDS_P1;SDS_P2;PMS_P1;PMS_P2;Temp;Humidity;BMP_temperature;BMP_pressure;BME280_temperature;BME280_humidity;BME280_pressure;Samples;Min_cycle;Max_cycle;Signal;HPM_P1;HPM_P2
2022/05/10 00:00:54;;;;;;;0.40;0.22;;;14.10;99.90;;;;;;5089450;28;20382;-72
2022/05/10 00:03:21;;;;;;;0.90;0.70;;;14.10;99.90;;;;;;5090365;28;20410;-72
2022/05/10 00:05:47;;;;;;;0.40;0.20;;;14.00;99.90;;;;;;5089212;28;20467;-71
2022/05/10 00:08:16;;;;;;;0.70;0.50;;;14.00;99.90;;;;;;5090633;28;20370;-71
2022/05/10 00:10:43;;;;;;;0.40;0.30;;;14.00;99.90;;;;;;5089606;28;20381;-71
2022/05/10 00:13:09;;;;;;;0.80;0.80;;;13.90;99.90;;;;;;5089716;28;20902;-71
2022/05/10 00:15:35;;;;;;;0.70;0.50;;;14.00;99.90;;;;;;5089747;28;20382;-72
2022/05/10 00:18:02;;;;;;;0.40;0.20;;;14.00;99.90;;;;;;5090744;28;20387;-71
2022/05/10 00:20:28;;;;;;;0.40;0.32;;;13.90;99.90;;;;;;5089793;28;20730;-71
2022/05/10 00:22:54;;;;;;;0.40;0.20;;;13.90;99.90;;;;;;5090234;28;20390;-71
2022/05/10 00:25:26;;;;;;;0.70;0.70;;;13.90;99.90;;;;;;5089894;28;20397;-71
2022/05/10 00:27:52;;;;;;;0.50;0.43;;;13.90;99.90;;;;;;5089463;28;20390;-71
2022/05/10 00:30:18;;;;;;;0.40;0.30;;;13.80;99.90;;;;;;5090136;28;21011;-71
2022/05/10 00:32:45;;;;;;;0.40;0.20;;;13.80;99.90;;;;;;5089093;28;20476;-71
2022/05/10 00:35:21;;;;;;;0.40;0.30;;;13.70;99.90;;;;;;5090488;28;20688;-71
2022/05/10 00:37:48;;;;;;;0.40;0.30;;;13.70;99.90;;;;;;5089984;28;20958;-72
2022/05/10 00:40:18;;;;;;;0.50;0.50;;;13.70;99.90;;;;;;5089532;28;20477;-72
2022/05/10 00:43:02;;;;;;;1.00;0.90;;;13.70;99.90;;;;;;5089475;28;20409;-71
2022/05/10 00:45:56;;;;;;;0.40;0.30;;;13.70;99.90;;;;;;5089683;28;20500;-71
2022/05/10 00:48:43;;;;;;;0.40;0.30;;;13.70;99.90;;;;;;5090236;28;20447;-71
2022/05/10 00:51:08;;;;;;;0.40;0.30;;;13.50;99.90;;;;;;5089939;28;20409;-71
2022/05/10 00:53:53;;;;;;;0.40;0.40;;;13.60;99.90;;;;;;5089067;28;20382;-72
2022/05/10 00:56:31;;;;;;;0.70;0.70;;;13.50;99.90;;;;;;5090275;28;20455;-72
2022/05/10 00:59:01;;;;;;;0.40;0.30;;;13.60;99.90;;;;;;5088005;28;20393;-71
2022/05/10 01:01:34;;;;;;;0.40;0.30;;;13.50;99.90;;;;;;5089145;28;20398;-71
2022/05/10 01:04:27;;;;;;;0.40;0.40;;;13.40;99.90;;;;;;5089161;28;20920;-71
2022/05/10 01:07:29;;;;;;;0.40;0.30;;;13.40;99.90;;;;;;5089323;28;20507;-72
2022/05/10 01:10:00;;;;;;;0.40;0.28;;;13.30;99.90;;;;;;5069171;28;20383;-72
2022/05/10 01:12:34;;;;;;;1.60;0.90;;;13.40;99.90;;;;;;5071610;28;20380;-71
2022/05/10 01:15:07;;;;;;;0.40;0.20;;;13.30;99.90;;;;;;5089933;28;20426;-72
2022/05/10 01:17:33;;;;;;;0.40;0.30;;;13.40;99.90;;;;;;5092754;28;20396;-72
2022/05/10 01:19:59;;;;;;;0.40;0.20;;;13.30;99.90;;;;;;5093632;28;20390;-72
2022/05/10 01:22:34;;;;;;;0.40;0.30;;;13.20;99.90;;;;;;5093378;28;20757;-71
2022/05/10 01:25:31;;;;;;;0.80;0.70;;;13.20;99.90;;;;;;5093333;28;20424;-71
2022/05/10 01:28:18;;;;;;;0.47;0.43;;;13.20;99.90;;;;;;5092717;28;20401;-72
2022/05/10 01:30:44;;;;;;;0.60;0.60;;;13.10;99.90;;;;;;5091684;28;20386;-72
2022/05/10 01:33:29;;;;;;;0.40;0.20;;;13.10;99.90;;;;;;5092990;28;20893;-71
2022/05/10 01:36:34;;;;;;;2.10;0.90;;;13.10;99.90;;;;;;5092241;28;20386;-71
2022/05/10 01:39:02;;;;;;;0.55;0.47;;;13.10;99.90;;;;;;5092802;28;20398;-71
2022/05/10 01:41:47;;;;;;;0.40;0.20;;;13.00;99.90;;;;;;5092884;28;20374;-71
2022/05/10 01:44:49;;;;;;;0.70;0.70;;;13.00;99.90;;;;;;5092319;28;20418;-71
2022/05/10 01:47:29;;;;;;;0.40;0.40;;;13.00;99.90;;;;;;5093195;28;20421;-71
2022/05/10 01:50:21;;;;;;;0.50;0.50;;;13.00;99.90;;;;;;5092472;28;20409;-71
2022/05/10 01:53:13;;;;;;;1.00;0.70;;;13.00;99.90;;;;;;5092241;28;20374;-71
2022/05/10 01:55:47;;;;;;;0.80;0.80;;;13.00;99.90;;;;;;5091709;28;20473;-71
2022/05/10 01:58:25;;;;;;;0.40;0.40;;;13.10;99.90;;;;;;5074453;28;20402;-71
2022/05/10 02:01:14;;;;;;;0.40;0.20;;;13.00;99.90;;;;;;5092056;28;20392;-71
2022/05/10 02:04:00;;;;;;;0.40;0.20;;;13.00;99.90;;;;;;5090320;28;20798;-72
2022/05/10 02:06:46;;;;;;;0.40;0.20;;;13.00;99.90;;;;;;5091462;28;20414;-71
2022/05/10 02:09:15;;;;;;;0.40;0.30;;;13.00;99.90;;;;;;5085307;28;20479;-72
2022/05/10 02:11:55;;;;;;;3.50;0.80;;;12.90;99.90;;;;;;5091912;28;20370;-71
2022/05/10 02:14:31;;;;;;;0.40;0.40;;;12.90;99.90;;;;;;5092265;28;20795;-71
2022/05/10 02:17:11;;;;;;;0.50;0.50;;;12.90;99.90;;;;;;5091523;28;21242;-71
2022/05/10 02:19:47;;;;;;;0.40;0.20;;;12.90;99.90;;;;;;5089991;28;20498;-71
2022/05/10 02:22:37;;;;;;;0.40;0.40;;;12.90;99.90;;;;;;5073987;28;20389;-72
2022/05/10 02:25:42;;;;;;;0.60;0.60;;;13.00;99.90;;;;;;5092043;28;20393;-71
2022/05/10 02:28:35;;;;;;;0.40;0.20;;;13.00;99.90;;;;;;4989166;28;20589;-72
2022/05/10 02:31:08;;;;;;;0.40;0.35;;;13.00;99.90;;;;;;5069617;28;20396;-71
2022/05/10 02:33:34;;;;;;;0.40;0.30;;;12.90;99.90;;;;;;5083820;28;20454;-72
2022/05/10 02:36:00;;;;;;;0.40;0.40;;;12.80;99.90;;;;;;5091237;28;20840;-71
2022/05/10 02:38:29;;;;;;;0.40;0.30;;;12.80;99.90;;;;;;5090775;28;20469;-72
2022/05/10 02:40:57;;;;;;;0.70;0.70;;;12.80;99.90;;;;;;5091227;28;20390;-71
2022/05/10 02:43:27;;;;;;;0.40;0.20;;;12.70;99.90;;;;;;5091767;28;20417;-71
2022/05/10 02:45:54;;;;;;;0.43;0.38;;;12.70;99.90;;;;;;5090811;28;20816;-72
2022/05/10 02:48:33;;;;;;;0.40;0.30;;;12.70;99.90;;;;;;5090072;28;20402;-72
2022/05/10 02:50:59;;;;;;;0.40;0.30;;;12.70;99.90;;;;;;5070726;28;20380;-72
2022/05/10 02:53:25;;;;;;;0.40;0.30;;;12.70;99.90;;;;;;5071602;28;20475;-72
2022/05/10 02:55:57;;;;;;;0.40;0.30;;;12.60;99.90;;;;;;5070695;28;20398;-72
2022/05/10 02:58:31;;;;;;;0.40;0.40;;;12.60;99.90;;;;;;5074731;28;20417;-71
2022/05/10 03:01:09;;;;;;;0.40;0.30;;;12.60;99.90;;;;;;5090720;28;21117;-72
2022/05/10 03:03:35;;;;;;;0.40;0.20;;;12.60;99.90;;;;;;5090929;28;20527;-72
2022/05/10 03:06:01;;;;;;;0.40;0.40;;;12.60;99.90;;;;;;5090388;28;20405;-72
2022/05/10 03:08:27;;;;;;;0.40;0.30;;;12.50;99.90;;;;;;5090812;28;20390;-72
2022/05/10 03:10:53;;;;;;;0.70;0.68;;;12.50;99.90;;;;;;5089759;28;20406;-72
2022/05/10 03:13:19;;;;;;;0.40;0.28;;;12.50;99.90;;;;;;5090971;28;20501;-72
2022/05/10 03:15:44;;;;;;;0.40;0.30;;;12.50;99.90;;;;;;5089349;28;20406;-71
2022/05/10 03:18:10;;;;;;;0.40;0.40;;;12.50;99.90;;;;;;5090513;28;20389;-72
2022/05/10 03:20:36;;;;;;;0.40;0.27;;;12.50;99.90;;;;;;5090442;28;20957;-72
2022/05/10 03:23:02;;;;;;;0.40;0.20;;;12.50;99.90;;;;;;5090607;28;20464;-71
2022/05/10 03:25:30;;;;;;;0.40;0.20;;;12.50;99.90;;;;;;5090689;28;20386;-72
2022/05/10 03:27:58;;;;;;;0.40;0.20;;;12.50;99.90;;;;;;5089700;28;20394;-71
2022/05/10 03:30:25;;;;;;;0.80;0.80;;;12.50;99.90;;;;;;5072193;28;20717;-71
2022/05/10 03:32:52;;;;;;;0.40;0.40;;;12.40;99.90;;;;;;5090271;28;20562;-72
2022/05/10 03:35:18;;;;;;;0.40;0.40;;;12.40;99.90;;;;;;5091013;28;20762;-71
2022/05/10 03:37:44;;;;;;;0.40;0.30;;;12.40;99.90;;;;;;5090100;28;20523;-72
2022/05/10 03:40:11;;;;;;;0.40;0.20;;;12.40;99.90;;;;;;5090297;28;20524;-71
2022/05/10 03:42:48;;;;;;;0.60;0.50;;;12.40;99.90;;;;;;5072947;28;20830;-71
2022/05/10 03:45:15;;;;;;;0.50;0.50;;;12.40;99.90;;;;;;5090540;28;20398;-72
2022/05/10 03:47:41;;;;;;;0.40;0.20;;;12.40;99.90;;;;;;5090728;28;20406;-72
2022/05/10 03:50:08;;;;;;;0.40;0.30;;;12.30;99.90;;;;;;5090807;28;20409;-71
2022/05/10 03:52:35;;;;;;;0.40;0.20;;;12.40;99.90;;;;;;5091260;28;20432;-71
2022/05/10 03:55:00;;;;;;;0.60;0.60;;;12.50;99.90;;;;;;5089892;28;20403;-71
2022/05/10 03:57:26;;;;;;;0.40;0.20;;;12.40;99.90;;;;;;5090860;28;20378;-71
2022/05/10 03:59:52;;;;;;;0.40;0.20;;;12.40;99.90;;;;;;5089797;28;20368;-71
2022/05/10 04:02:18;;;;;;;0.70;0.70;;;12.30;99.90;;;;;;5090852;28;20397;-71
2022/05/10 04:04:44;;;;;;;0.40;0.20;;;12.30;99.90;;;;;;5089233;28;20412;-72
2022/05/10 04:07:10;;;;;;;0.40;0.20;;;12.30;99.90;;;;;;5090489;28;20492;-71
2022/05/10 04:09:36;;;;;;;0.47;0.47;;;12.30;99.90;;;;;;5090662;28;20378;-71
2022/05/10 04:12:02;;;;;;;0.40;0.20;;;12.30;99.90;;;;;;5089686;28;20377;-71
2022/05/10 04:14:28;;;;;;;1.40;0.80;;;12.30;99.90;;;;;;5090373;28;20417;-71
2022/05/10 04:16:54;;;;;;;0.40;0.40;;;12.40;99.90;;;;;;5087970;28;20886;-71
2022/05/10 04:19:20;;;;;;;0.50;0.50;;;12.30;99.90;;;;;;5088904;28;20431;-71
2022/05/10 04:21:45;;;;;;;0.40;0.30;;;12.40;99.90;;;;;;5088384;28;20429;-71
2022/05/10 04:24:11;;;;;;;2.50;0.80;;;12.50;99.90;;;;;;5090862;28;20386;-71
2022/05/10 04:26:37;;;;;;;0.50;0.50;;;12.60;99.90;;;;;;5090226;28;20393;-71
2022/05/10 04:29:03;;;;;;;0.40;0.20;;;12.60;99.90;;;;;;5089759;28;20979;-71
2022/05/10 04:31:29;;;;;;;0.50;0.50;;;12.50;99.90;;;;;;5089799;28;20481;-71
2022/05/10 04:33:55;;;;;;;0.40;0.20;;;12.50;99.90;;;;;;5089536;28;20807;-71
2022/05/10 04:36:23;;;;;;;0.40;0.30;;;12.50;99.90;;;;;;5089987;28;20485;-70
2022/05/10 04:38:49;;;;;;;0.60;0.50;;;12.50;99.90;;;;;;5089283;28;20421;-70
2022/05/10 04:41:26;;;;;;;0.40;0.40;;;12.50;99.90;;;;;;5090329;28;20382;-71
2022/05/10 04:44:09;;;;;;;0.40;0.20;;;12.50;99.90;;;;;;5089341;28;20815;-71
2022/05/10 04:46:38;;;;;;;1.40;1.30;;;12.60;99.90;;;;;;5090032;28;20774;-71
2022/05/10 04:49:06;;;;;;;0.70;0.70;;;12.60;99.90;;;;;;5088445;28;20481;-71
2022/05/10 04:51:32;;;;;;;0.40;0.20;;;12.60;99.90;;;;;;5092475;28;20393;-71
2022/05/10 04:53:59;;;;;;;0.65;0.65;;;12.70;99.90;;;;;;5093367;28;20424;-71
2022/05/10 04:56:25;;;;;;;1.30;0.80;;;12.70;99.90;;;;;;5094230;28;20398;-71
2022/05/10 04:58:54;;;;;;;0.60;0.60;;;12.60;99.90;;;;;;5093408;28;20390;-71
2022/05/10 05:01:22;;;;;;;0.40;0.20;;;12.70;99.90;;;;;;5093461;28;20419;-71
2022/05/10 05:03:49;;;;;;;0.57;0.57;;;12.70;99.90;;;;;;5093414;28;20389;-71
2022/05/10 05:06:16;;;;;;;0.40;0.20;;;12.80;99.90;;;;;;5088879;28;20457;-71
2022/05/10 05:08:43;;;;;;;0.47;0.38;;;12.90;99.90;;;;;;5078507;28;20394;-71
2022/05/10 05:11:09;;;;;;;0.60;0.50;;;13.00;99.90;;;;;;5083459;28;20400;-71
2022/05/10 05:13:35;;;;;;;0.43;0.37;;;13.00;99.90;;;;;;5093917;28;20499;-71
2022/05/10 05:16:01;;;;;;;0.50;0.50;;;13.10;99.90;;;;;;5093053;28;20874;-71
2022/05/10 05:18:27;;;;;;;0.40;0.30;;;13.20;99.90;;;;;;5093594;28;20394;-71
2022/05/10 05:20:53;;;;;;;0.77;0.40;;;13.30;99.90;;;;;;5093003;28;20466;-70
2022/05/10 05:23:20;;;;;;;3.08;2.58;;;13.40;99.90;;;;;;5092628;28;20749;-71
2022/05/10 05:25:46;;;;;;;0.40;0.30;;;13.40;99.90;;;;;;5093218;28;20406;-71
2022/05/10 05:28:12;;;;;;;0.60;0.60;;;13.40;99.90;;;;;;5092478;28;20524;-70
2022/05/10 05:30:40;;;;;;;0.40;0.20;;;13.50;99.90;;;;;;5093803;28;20412;-71
2022/05/10 05:33:06;;;;;;;0.65;0.65;;;13.50;99.90;;;;;;5081834;28;20384;-70
2022/05/10 05:35:33;;;;;;;0.40;0.30;;;13.70;99.90;;;;;;5087840;28;20865;-71
2022/05/10 05:37:58;;;;;;;0.40;0.30;;;13.70;99.90;;;;;;5091559;28;20472;-71
2022/05/10 05:40:25;;;;;;;0.40;0.20;;;13.70;99.90;;;;;;5093660;28;20445;-71
2022/05/10 05:42:52;;;;;;;0.40;0.30;;;13.80;99.90;;;;;;5092586;28;20402;-71
2022/05/10 05:45:20;;;;;;;0.40;0.20;;;13.90;99.90;;;;;;5093352;28;20489;-71
2022/05/10 05:47:46;;;;;;;0.40;0.30;;;13.90;99.90;;;;;;5091912;28;20463;-71
2022/05/10 05:50:15;;;;;;;0.73;0.73;;;14.00;99.90;;;;;;5073550;28;20394;-71
2022/05/10 05:52:41;;;;;;;0.50;0.50;;;14.10;99.90;;;;;;5093080;28;20374;-71
2022/05/10 05:55:08;;;;;;;0.40;0.20;;;14.20;99.90;;;;;;5091359;28;20445;-71
2022/05/10 05:57:35;;;;;;;0.40;0.20;;;14.20;99.90;;;;;;5093137;28;20409;-71
2022/05/10 06:00:02;;;;;;;0.40;0.20;;;14.40;99.90;;;;;;5091160;28;20437;-71
2022/05/10 06:02:28;;;;;;;0.40;0.20;;;14.40;99.90;;;;;;5091073;28;20401;-72
2022/05/10 06:04:54;;;;;;;0.40;0.20;;;14.50;99.90;;;;;;5092086;28;20501;-71
2022/05/10 06:07:20;;;;;;;0.70;0.60;;;14.50;99.90;;;;;;5093282;28;20761;-71
2022/05/10 06:09:47;;;;;;;0.40;0.30;;;14.60;99.90;;;;;;5091805;28;20429;-71
2022/05/10 06:12:16;;;;;;;0.40;0.30;;;14.70;99.90;;;;;;5090951;28;21382;-72
2022/05/10 06:14:42;;;;;;;0.40;0.30;;;14.80;99.90;;;;;;5092681;28;20394;-71
2022/05/10 06:17:10;;;;;;;0.40;0.22;;;14.80;99.90;;;;;;5092273;28;21018;-71
2022/05/10 06:19:47;;;;;;;0.40;0.30;;;14.90;99.90;;;;;;5092602;28;20781;-71
2022/05/10 06:22:14;;;;;;;0.40;0.22;;;15.00;99.90;;;;;;5092374;28;20388;-71
2022/05/10 06:24:40;;;;;;;0.40;0.20;;;15.20;99.90;;;;;;5075196;28;20378;-71
2022/05/10 06:27:10;;;;;;;0.60;0.60;;;15.30;99.90;;;;;;5074100;28;20398;-71
2022/05/10 06:29:36;;;;;;;0.43;0.43;;;15.40;99.90;;;;;;5092723;28;20840;-71
2022/05/10 06:32:02;;;;;;;0.40;0.20;;;15.50;99.90;;;;;;5092302;28;20382;-72
2022/05/10 06:34:30;;;;;;;0.90;0.90;;;15.50;99.90;;;;;;5092401;28;20420;-72
2022/05/10 06:36:56;;;;;;;0.40;0.30;;;15.60;99.90;;;;;;5091450;28;20394;-72
2022/05/10 06:39:21;;;;;;;0.40;0.30;;;15.60;99.90;;;;;;5092479;28;20388;-72
2022/05/10 06:41:47;;;;;;;0.60;0.60;;;15.70;99.90;;;;;;5074445;28;20384;-71
2022/05/10 06:44:13;;;;;;;0.73;0.63;;;15.70;99.90;;;;;;5091185;28;20505;-71
2022/05/10 06:46:38;;;;;;;1.00;0.57;;;15.80;99.90;;;;;;5091378;28;20877;-71
2022/05/10 06:49:05;;;;;;;1.17;1.08;;;15.90;99.90;;;;;;5089740;28;20390;-71
2022/05/10 06:51:31;;;;;;;0.70;0.70;;;16.00;99.90;;;;;;5090977;28;20462;-71
2022/05/10 06:53:57;;;;;;;1.23;1.13;;;16.10;99.90;;;;;;5089716;28;20442;-71
2022/05/10 06:56:23;;;;;;;0.40;0.30;;;16.20;99.90;;;;;;5090094;28;20398;-71
2022/05/10 06:58:49;;;;;;;0.40;0.30;;;16.30;99.90;;;;;;5090529;28;20434;-71
2022/05/10 07:01:16;;;;;;;0.47;0.47;;;16.40;99.90;;;;;;5090142;28;20377;-72
2022/05/10 07:03:50;;;;;;;0.40;0.20;;;16.60;99.90;;;;;;5090548;28;20439;-71
2022/05/10 07:06:19;;;;;;;0.40;0.30;;;16.60;99.90;;;;;;5089409;28;20421;-71
2022/05/10 07:08:45;;;;;;;0.60;0.60;;;16.70;99.90;;;;;;5090705;28;20389;-71
2022/05/10 07:11:11;;;;;;;0.40;0.40;;;16.70;99.90;;;;;;5090667;28;20389;-71
2022/05/10 07:13:37;;;;;;;0.40;0.30;;;16.90;99.90;;;;;;5091683;28;20386;-71
2022/05/10 07:16:04;;;;;;;0.40;0.30;;;17.10;99.90;;;;;;5090606;28;20904;-71
2022/05/10 07:18:30;;;;;;;0.40;0.30;;;17.10;99.90;;;;;;5091701;28;20374;-71
2022/05/10 07:20:56;;;;;;;0.80;0.80;;;17.20;99.90;;;;;;5090829;28;20370;-71
2022/05/10 07:23:25;;;;;;;0.40;0.30;;;17.30;99.90;;;;;;5091659;28;20565;-71
2022/05/10 07:25:51;;;;;;;1.00;0.80;;;17.40;99.90;;;;;;5090876;28;20410;-71
2022/05/10 07:28:17;;;;;;;0.40;0.30;;;17.50;99.90;;;;;;5091147;28;20469;-72
2022/05/10 07:30:43;;;;;;;0.40;0.30;;;17.50;99.90;;;;;;5091463;28;20458;-71
2022/05/10 07:33:09;;;;;;;0.40;0.30;;;17.70;99.90;;;;;;5090394;28;20382;-72
2022/05/10 07:38:20;;;;;;;1.20;0.90;;;17.80;99.90;;;;;;5091097;28;20870;-71
2022/05/10 07:40:48;;;;;;;0.40;0.40;;;17.90;99.90;;;;;;5091132;28;20390;-72
2022/05/10 07:43:19;;;;;;;1.00;0.90;;;17.90;99.90;;;;;;5099136;28;20481;-72
2022/05/10 07:45:47;;;;;;;0.40;0.20;;;18.00;99.90;;;;;;5101463;28;20442;-72
2022/05/10 07:48:13;;;;;;;0.40;0.40;;;18.00;99.90;;;;;;5110860;28;20389;-71
2022/05/10 07:50:39;;;;;;;0.40;0.32;;;18.00;99.90;;;;;;5111528;28;20414;-71
2022/05/10 07:53:08;;;;;;;0.60;0.60;;;18.10;99.90;;;;;;5110728;28;20369;-72
2022/05/10 07:55:34;;;;;;;0.90;0.90;;;18.10;99.90;;;;;;5111491;28;20368;-71
2022/05/10 07:58:00;;;;;;;0.40;0.30;;;18.10;99.90;;;;;;5110357;28;20377;-71
2022/05/10 08:00:26;;;;;;;1.00;0.70;;;18.10;99.90;;;;;;5078124;28;20892;-71
2022/05/10 08:02:52;;;;;;;0.60;0.60;;;18.30;99.90;;;;;;5091278;28;20421;-72
2022/05/10 08:05:21;;;;;;;0.50;0.40;;;18.40;99.90;;;;;;5090135;28;20382;-71
2022/05/10 08:07:47;;;;;;;0.50;0.40;;;18.50;99.90;;;;;;5090625;28;20406;-71
2022/05/10 08:10:14;;;;;;;0.40;0.30;;;18.70;99.90;;;;;;5080462;28;20492;-71
2022/05/10 08:12:40;;;;;;;0.70;0.50;;;18.80;99.90;;;;;;5069409;28;20402;-72
2022/05/10 08:15:08;;;;;;;0.70;0.50;;;18.90;99.90;;;;;;5089623;28;20774;-71
2022/05/10 08:17:34;;;;;;;0.40;0.20;;;19.00;99.90;;;;;;5090735;28;20943;-70
2022/05/10 08:19:59;;;;;;;0.70;0.60;;;19.20;99.90;;;;;;5089554;28;20715;-71
2022/05/10 08:22:25;;;;;;;0.40;0.30;;;19.20;99.90;;;;;;5090808;28;20385;-71
2022/05/10 08:24:51;;;;;;;0.80;0.70;;;19.40;99.90;;;;;;5090761;28;20374;-69
2022/05/10 08:27:17;;;;;;;0.40;0.30;;;19.40;99.90;;;;;;5093926;28;20416;-71
2022/05/10 08:29:43;;;;;;;0.60;0.60;;;19.50;99.90;;;;;;5095018;28;20378;-70
2022/05/10 08:32:08;;;;;;;0.70;0.40;;;19.50;99.90;;;;;;5093802;28;20374;-71
2022/05/10 08:34:36;;;;;;;0.40;0.40;;;19.70;99.90;;;;;;5094928;28;20381;-70
2022/05/10 08:37:03;;;;;;;0.60;0.60;;;19.70;99.90;;;;;;5093518;28;20439;-69
2022/05/10 08:39:29;;;;;;;0.65;0.65;;;19.80;99.90;;;;;;5094905;28;20382;-69
2022/05/10 08:41:59;;;;;;;0.50;0.50;;;19.80;99.90;;;;;;5094743;28;20377;-70
2022/05/10 08:44:28;;;;;;;0.40;0.30;;;19.80;99.90;;;;;;5094711;28;20433;-70
2022/05/10 08:47:03;;;;;;;0.40;0.30;;;19.90;99.90;;;;;;5094601;28;20413;-69
2022/05/10 08:49:39;;;;;;;0.40;0.40;;;19.90;99.90;;;;;;5094623;28;20389;-70
2022/05/10 08:52:06;;;;;;;0.60;0.40;;;19.80;99.90;;;;;;5093841;28;20423;-71
2022/05/10 08:54:36;;;;;;;0.40;0.30;;;19.90;99.90;;;;;;5094506;28;20850;-69
2022/05/10 08:57:40;;;;;;;0.40;0.40;;;19.90;99.90;;;;;;5093692;28;20492;-71
2022/05/10 09:00:07;;;;;;;0.80;0.80;;;19.90;99.90;;;;;;5074531;28;20827;-70
2022/05/10 09:02:46;;;;;;;0.60;0.60;;;19.90;99.90;;;;;;5092995;28;20394;-71
2022/05/10 09:05:21;;;;;;;0.40;0.40;;;19.90;99.90;;;;;;5091126;28;20873;-71
2022/05/10 09:08:12;;;;;;;0.50;0.40;;;20.00;99.90;;;;;;5091659;28;20890;-71
2022/05/10 09:10:44;;;;;;;0.40;0.30;;;20.00;99.90;;;;;;5087564;28;20496;-69
2022/05/10 09:13:14;;;;;;;0.50;0.47;;;20.00;99.90;;;;;;5093280;28;20442;-71
2022/05/10 09:16:02;;;;;;;1.10;1.00;;;20.20;99.90;;;;;;5075742;28;20398;-71
2022/05/10 09:18:29;;;;;;;0.90;0.90;;;20.20;99.90;;;;;;5093562;28;20484;-71
2022/05/10 09:21:13;;;;;;;4.90;0.60;;;20.10;99.90;;;;;;5093835;28;20889;-71
2022/05/10 09:24:00;;;;;;;0.40;0.20;;;20.20;99.90;;;;;;5093906;28;20374;-69
2022/05/10 09:26:39;;;;;;;0.52;0.47;;;20.50;99.90;;;;;;5093561;28;20406;-71
2022/05/10 09:29:24;;;;;;;1.50;0.85;;;20.50;99.90;;;;;;5091887;28;20394;-72
2022/05/10 09:34:48;;;;;;;0.40;0.20;;;20.80;99.90;;;;;;5077657;28;20907;-71
2022/05/10 09:37:32;;;;;;;0.50;0.50;;;20.90;99.90;;;;;;5091298;28;20407;-71
2022/05/10 09:39:57;;;;;;;0.40;0.30;;;21.10;99.90;;;;;;5093621;28;20382;-71
2022/05/10 09:42:26;;;;;;;0.77;0.77;;;21.00;99.90;;;;;;5092540;28;20397;-71
2022/05/10 09:45:06;;;;;;;0.40;0.30;;;21.10;99.90;;;;;;5093529;28;20484;-71
2022/05/10 09:47:32;;;;;;;0.40;0.20;;;21.10;99.90;;;;;;5093504;28;20406;-70
2022/05/10 09:50:14;;;;;;;0.60;0.60;;;21.30;99.90;;;;;;5092987;28;20886;-72
2022/05/10 09:52:40;;;;;;;1.30;1.20;;;21.30;99.90;;;;;;5093498;28;20451;-71
2022/05/10 09:55:10;;;;;;;0.40;0.40;;;21.40;99.90;;;;;;5092419;28;20382;-72
2022/05/10 09:57:40;;;;;;;0.40;0.30;;;21.50;99.90;;;;;;5093259;28;20374;-72
2022/05/10 10:00:15;;;;;;;0.45;0.40;;;21.50;99.90;;;;;;5092293;28;20730;-71
2022/05/10 10:02:42;;;;;;;0.50;0.40;;;21.70;99.90;;;;;;5093004;28;20378;-71
2022/05/10 10:05:28;;;;;;;0.47;0.40;;;21.90;99.90;;;;;;5092180;28;20384;-70
2022/05/10 10:07:57;;;;;;;0.40;0.20;;;22.10;98.90;;;;;;5084322;28;20967;-72
2022/05/10 10:10:24;;;;;;;0.40;0.30;;;22.30;95.80;;;;;;5085070;28;20424;-69
2022/05/10 10:12:50;;;;;;;0.55;0.50;;;22.30;93.70;;;;;;5086940;28;20481;-70
2022/05/10 10:15:40;;;;;;;0.40;0.40;;;22.30;92.10;;;;;;5086789;28;20839;-69
2022/05/10 10:18:33;;;;;;;0.40;0.30;;;22.30;92.60;;;;;;5086670;28;20394;-70
2022/05/10 10:20:59;;;;;;;0.40;0.30;;;22.40;93.40;;;;;;5072059;28;20407;-69
2022/05/10 10:23:27;;;;;;;0.40;0.30;;;22.50;92.40;;;;;;5084803;28;21117;-69
2022/05/10 10:25:58;;;;;;;1.20;0.60;;;22.50;93.10;;;;;;5091563;28;20436;-70
2022/05/10 10:28:29;;;;;;;0.40;0.30;;;22.60;91.20;;;;;;5092034;28;20542;-70
2022/05/10 10:31:19;;;;;;;0.40;0.30;;;22.50;91.20;;;;;;5092655;28;20378;-68
2022/05/10 10:33:57;;;;;;;0.40;0.30;;;22.70;87.80;;;;;;5075818;28;20440;-70
2022/05/10 10:36:43;;;;;;;0.50;0.50;;;22.80;86.70;;;;;;5091193;28;20485;-70
2022/05/10 10:39:23;;;;;;;0.40;0.30;;;22.80;88.70;;;;;;5084317;28;20394;-71
2022/05/10 10:42:11;;;;;;;0.52;0.45;;;23.00;89.90;;;;;;5085041;28;20386;-72
2022/05/10 10:44:50;;;;;;;0.40;0.30;;;23.00;87.10;;;;;;5090890;28;20402;-70
2022/05/10 10:47:51;;;;;;;0.40;0.30;;;23.20;83.30;;;;;;5071046;28;20494;-70
2022/05/10 10:50:23;;;;;;;0.50;0.40;;;23.30;79.60;;;;;;5031938;28;20779;-70
2022/05/10 10:52:49;;;;;;;0.40;0.30;;;23.30;82.20;;;;;;5089537;28;20386;-70
2022/05/10 10:55:18;;;;;;;0.40;0.20;;;23.40;82.70;;;;;;5091210;28;20758;-71
2022/05/10 10:57:59;;;;;;;0.40;0.30;;;23.60;79.60;;;;;;5091086;28;20401;-72
2022/05/10 11:00:37;;;;;;;0.40;0.20;;;23.70;81.30;;;;;;5088108;28;20398;-70
2022/05/10 11:03:23;;;;;;;0.40;0.30;;;23.60;81.30;;;;;;5090693;28;20401;-71
2022/05/10 11:06:24;;;;;;;0.70;0.50;;;23.90;83.40;;;;;;5090945;28;20762;-72
2022/05/10 11:09:03;;;;;;;0.40;0.30;;;24.20;83.80;;;;;;5079406;28;20405;-71
2022/05/10 11:12:06;;;;;;;0.40;0.30;;;24.20;82.60;;;;;;5090343;28;20429;-70
2022/05/10 11:14:53;;;;;;;0.50;0.45;;;24.00;82.80;;;;;;5085100;28;20394;-71
2022/05/10 11:17:37;;;;;;;1.10;1.10;;;24.10;86.10;;;;;;5084417;28;20407;-70
2022/05/10 11:20:12;;;;;;;0.53;0.40;;;24.20;85.00;;;;;;5084659;28;20390;-71
2022/05/10 11:22:41;;;;;;;0.40;0.30;;;24.50;86.40;;;;;;5088289;28;20383;-70
2022/05/10 11:25:31;;;;;;;0.40;0.30;;;24.70;83.00;;;;;;5088409;28;20394;-70
2022/05/10 11:28:24;;;;;;;0.40;0.22;;;25.10;82.00;;;;;;5084785;28;20495;-70
2022/05/10 11:31:32;;;;;;;0.40;0.30;;;25.50;80.40;;;;;;5084791;28;20727;-71
2022/05/10 11:34:23;;;;;;;0.40;0.30;;;25.50;80.00;;;;;;5050616;28;20493;-71
2022/05/10 11:36:51;;;;;;;1.00;0.90;;;25.80;74.80;;;;;;5087924;28;20891;-70
2022/05/10 11:39:17;;;;;;;0.40;0.25;;;26.10;75.40;;;;;;5084398;28;20398;-71
2022/05/10 11:42:05;;;;;;;0.50;0.40;;;26.40;74.30;;;;;;5086634;28;20497;-69
2022/05/10 11:44:56;;;;;;;0.50;0.40;;;26.80;71.80;;;;;;5087137;28;20433;-70
2022/05/10 11:47:27;;;;;;;0.40;0.30;;;27.00;70.60;;;;;;5088019;28;20924;-71
2022/05/10 11:50:06;;;;;;;1.10;0.80;;;27.60;70.00;;;;;;5088747;28;20449;-73
2022/05/10 11:52:51;;;;;;;0.40;0.20;;;27.80;68.50;;;;;;5087887;28;20389;-70
2022/05/10 11:55:41;;;;;;;0.40;0.30;;;27.80;64.30;;;;;;5087714;28;20373;-71
2022/05/10 11:58:09;;;;;;;0.40;0.20;;;27.80;63.40;;;;;;5085590;28;20399;-72
2022/05/10 12:00:34;;;;;;;0.40;0.30;;;27.50;60.00;;;;;;5087783;28;20421;-73
2022/05/10 12:03:05;;;;;;;1.10;0.80;;;27.60;64.00;;;;;;5087717;28;20422;-71
2022/05/10 12:05:32;;;;;;;0.40;0.20;;;28.30;57.80;;;;;;5088268;28;20465;-71
2022/05/10 12:08:00;;;;;;;0.40;0.30;;;28.50;57.40;;;;;;5081249;28;20465;-72
2022/05/10 12:10:40;;;;;;;0.47;0.47;;;28.70;56.00;;;;;;5087326;28;20387;-71
2022/05/10 12:13:10;;;;;;;0.40;0.30;;;28.60;50.20;;;;;;5087441;28;20856;-72
2022/05/10 12:21:39;;;;;;;0.50;0.30;;;28.30;55.40;;;;;;5082991;28;20397;-71
2022/05/10 12:24:12;;;;;;;0.40;0.20;;;27.80;50.90;;;;;;5086703;28;20382;-73
2022/05/10 12:26:51;;;;;;;0.40;0.40;;;27.60;54.00;;;;;;5089461;28;20418;-72
2022/05/10 12:29:55;;;;;;;0.40;0.20;;;28.10;52.00;;;;;;5068289;28;20496;-71
2022/05/10 12:32:38;;;;;;;0.40;0.30;;;27.70;53.00;;;;;;5085130;28;20455;-70
2022/05/10 12:35:17;;;;;;;0.40;0.30;;;28.20;51.30;;;;;;5089245;28;20481;-71
2022/05/10 12:37:54;;;;;;;0.40;0.20;;;28.30;51.90;;;;;;5070020;28;20384;-72
2022/05/10 12:40:41;;;;;;;2.10;0.70;;;28.80;50.70;;;;;;5078812;28;20751;-70
2022/05/10 12:43:31;;;;;;;0.60;0.40;;;28.30;49.90;;;;;;5055833;28;20488;-72
2022/05/10 12:46:17;;;;;;;0.50;0.40;;;27.70;55.40;;;;;;5069946;28;20448;-71
2022/05/10 12:49:06;;;;;;;0.50;0.40;;;26.80;54.60;;;;;;5070399;28;20387;-70
2022/05/10 12:52:01;;;;;;;0.60;0.30;;;26.90;53.00;;;;;;5088164;28;20390;-71
2022/05/10 12:54:42;;;;;;;0.40;0.30;;;27.70;52.00;;;;;;5088696;28;20497;-69
2022/05/10 12:57:16;;;;;;;0.57;0.57;;;27.40;50.40;;;;;;5089790;28;20736;-71
2022/05/10 13:00:07;;;;;;;0.40;0.30;;;27.40;53.90;;;;;;5090105;28;20382;-72
2022/05/10 13:02:37;;;;;;;0.40;0.30;;;27.90;52.70;;;;;;5087439;28;20390;-69
2022/05/10 13:05:08;;;;;;;1.10;0.70;;;28.10;51.30;;;;;;5088700;28;20393;-71
2022/05/10 13:07:54;;;;;;;0.40;0.20;;;28.50;52.00;;;;;;5079420;28;20413;-70
2022/05/10 13:10:23;;;;;;;0.50;0.40;;;27.80;51.60;;;;;;5084708;28;20901;-71
2022/05/10 13:13:07;;;;;;;0.70;0.70;;;27.10;51.90;;;;;;5071959;28;20406;-70
2022/05/10 13:15:41;;;;;;;0.40;0.20;;;27.50;51.00;;;;;;5092205;28;20398;-71
2022/05/10 13:18:12;;;;;;;0.40;0.30;;;27.80;51.90;;;;;;5090460;28;20389;-70
2022/05/10 13:20:48;;;;;;;0.60;0.60;;;26.90;51.90;;;;;;5092878;28;20945;-71
2022/05/10 13:23:15;;;;;;;0.40;0.40;;;27.90;50.50;;;;;;5092780;28;20398;-69
2022/05/10 13:25:42;;;;;;;0.40;0.30;;;28.00;48.70;;;;;;5092831;28;20400;-70
2022/05/10 13:28:23;;;;;;;0.40;0.20;;;28.10;48.60;;;;;;5084108;28;20421;-71